sensor_id;sensor_type;location;lat;lon;timestamp;pressure;altitude;pressure_sealevel;temperature;humidity
3132;BME280;62090;52.330;9.104;2023-03-21T00:01:27;101096.47;;;9.61;100.00
3132;BME280;62090;52.330;9.104;2023-03-21T00:03:56;101089.56;;;9.57;100.00
3132;BME280;62090;52.330;9.104;2023-03-21T00:06:26;101122.94;;;9.91;100.00
3132;BME280;62090;52.330;9.104;2023-03-21T00:08:56;101111.66;;;9.85;100.00
3132;BME280;62090;52.330;9.104;2023-03-21T00:11:26;101106.44;;;9.80;100.00
3132;BME280;62090;52.330;9.104;2023-03-21T00:13:58;101097.94;;;9.80;100.00
3132;BME280;62090;52.330;9.104;2023-03-21T00:16:28;101075.91;;;9.80;100.00
3132;BME280;62090;52.330;9.104;2023-03-21T00:19:06;101099.28;;;9.95;100.00
3132;BME280;62090;52.330;9.104;2023-03-21T00:21:36;101113.75;;;9.96;100.00
3132;BME280;62090;52.330;9.104;2023-03-21T00:24:28;101113.03;;;10.00;100.00
3132;BME280;62090;52.330;9.104;2023-03-21T00:26:58;101085.34;;;9.84;100.00
3132;BME280;62090;52.330;9.104;2023-03-21T00:29:51;101093.63;;;9.77;100.00
3132;BME280;62090;52.330;9.104;2023-03-21T00:32:21;101114.47;;;9.92;100.00
3132;BME280;62090;52.330;9.104;2023-03-21T00:34:51;101063.97;;;9.79;100.00
3132;BME280;62090;52.330;9.104;2023-03-21T00:37:41;101097.25;;;10.10;100.00
3132;BME280;62090;52.330;9.104;2023-03-21T00:40:11;101072.94;;;9.93;100.00
3132;BME280;62090;52.330;9.104;2023-03-21T00:42:54;101093.06;;;10.12;100.00
3132;BME280;62090;52.330;9.104;2023-03-21T00:45:27;101068.19;;;10.04;100.00
3132;BME280;62090;52.330;9.104;2023-03-21T00:48:00;101019.63;;;9.71;100.00
3132;BME280;62090;52.330;9.104;2023-03-21T00:50:30;101079.34;;;10.07;100.00
3132;BME280;62090;52.330;9.104;2023-03-21T00:53:00;101063.66;;;9.95;100.00
3132;BME280;62090;52.330;9.104;2023-03-21T00:55:30;101081.88;;;10.07;100.00
3132;BME280;62090;52.330;9.104;2023-03-21T00:57:59;101082.06;;;10.13;100.00
3132;BME280;62090;52.330;9.104;2023-03-21T01:00:32;101066.84;;;9.88;100.00
3132;BME280;62090;52.330;9.104;2023-03-21T01:03:02;101075.84;;;10.04;100.00
3132;BME280;62090;52.330;9.104;2023-03-21T01:05:50;101074.75;;;9.97;100.00
3132;BME280;62090;52.330;9.104;2023-03-21T01:08:35;101049.34;;;9.72;100.00
3132;BME280;62090;52.330;9.104;2023-03-21T01:11:22;101077.13;;;9.91;100.00
3132;BME280;62090;52.330;9.104;2023-03-21T01:13:53;101052.19;;;9.81;100.00
3132;BME280;62090;52.330;9.104;2023-03-21T01:16:43;101060.41;;;9.74;100.00
3132;BME280;62090;52.330;9.104;2023-03-21T01:19:16;101077.06;;;9.90;100.00
3132;BME280;62090;52.330;9.104;2023-03-21T01:22:05;101075.31;;;9.89;100.00
3132;BME280;62090;52.330;9.104;2023-03-21T01:24:35;101056.31;;;9.78;100.00
3132;BME280;62090;52.330;9.104;2023-03-21T01:27:18;101055.03;;;9.65;100.00
3132;BME280;62090;52.330;9.104;2023-03-21T01:29:48;101065.72;;;9.80;100.00
3132;BME280;62090;52.330;9.104;2023-03-21T01:32:20;101062.31;;;9.80;100.00
3132;BME280;62090;52.330;9.104;2023-03-21T01:34:50;101047.47;;;9.66;100.00
3132;BME280;62090;52.330;9.104;2023-03-21T01:37:21;101062.59;;;9.89;100.00
3132;BME280;62090;52.330;9.104;2023-03-21T01:39:52;101058.28;;;9.86;100.00
3132;BME280;62090;52.330;9.104;2023-03-21T01:42:22;101008.22;;;9.60;100.00
3132;BME280;62090;52.330;9.104;2023-03-21T01:44:56;101054.00;;;9.85;100.00
3132;BME280;62090;52.330;9.104;2023-03-21T01:47:43;101068.47;;;9.86;100.00
3132;BME280;62090;52.330;9.104;2023-03-21T01:50:21;101058.56;;;9.95;100.00
3132;BME280;62090;52.330;9.104;2023-03-21T01:52:59;101022.97;;;9.70;100.00
3132;BME280;62090;52.330;9.104;2023-03-21T01:55:32;101056.75;;;9.91;100.00
3132;BME280;62090;52.330;9.104;2023-03-21T01:58:41;101019.13;;;9.56;100.00
3132;BME280;62090;52.330;9.104;2023-03-21T02:01:31;101058.00;;;9.77;100.00
3132;BME280;62090;52.330;9.104;2023-03-21T02:04:07;101049.03;;;9.88;100.00
3132;BME280;62090;52.330;9.104;2023-03-21T02:06:45;101047.28;;;9.87;100.00
3132;BME280;62090;52.330;9.104;2023-03-21T02:09:31;101046.66;;;9.94;100.00
3132;BME280;62090;52.330;9.104;2023-03-21T02:12:03;101036.09;;;9.82;100.00
3132;BME280;62090;52.330;9.104;2023-03-21T02:14:36;101042.44;;;9.95;100.00
3132;BME280;62090;52.330;9.104;2023-03-21T02:17:21;101038.84;;;9.88;100.00
3132;BME280;62090;52.330;9.104;2023-03-21T02:20:22;101000.88;;;9.69;100.00
3132;BME280;62090;52.330;9.104;2023-03-21T02:23:15;101026.66;;;9.80;100.00
3132;BME280;62090;52.330;9.104;2023-03-21T02:26:09;101018.81;;;9.72;100.00
3132;BME280;62090;52.330;9.104;2023-03-21T02:28:46;101005.94;;;9.67;100.00
3132;BME280;62090;52.330;9.104;2023-03-21T02:31:23;101007.09;;;9.77;100.00
3132;BME280;62090;52.330;9.104;2023-03-21T02:34:08;101017.13;;;9.72;100.00
3132;BME280;62090;52.330;9.104;2023-03-21T02:37:03;100989.59;;;9.61;100.00
3132;BME280;62090;52.330;9.104;2023-03-21T02:39:43;100998.44;;;9.72;100.00
3132;BME280;62090;52.330;9.104;2023-03-21T02:42:17;101015.63;;;9.79;100.00
3132;BME280;62090;52.330;9.104;2023-03-21T02:44:56;101013.22;;;9.84;100.00
3132;BME280;62090;52.330;9.104;2023-03-21T02:47:33;101004.44;;;9.74;100.00
3132;BME280;62090;52.330;9.104;2023-03-21T02:50:11;101009.09;;;9.87;100.00
3132;BME280;62090;52.330;9.104;2023-03-21T02:52:46;101011.66;;;9.87;100.00
3132;BME280;62090;52.330;9.104;2023-03-21T02:55:21;100965.91;;;9.62;100.00
3132;BME280;62090;52.330;9.104;2023-03-21T02:57:58;100977.97;;;9.69;100.00
3132;BME280;62090;52.330;9.104;2023-03-21T03:00:43;101014.09;;;9.84;100.00
3132;BME280;62090;52.330;9.104;2023-03-21T03:03:26;101005.56;;;9.82;100.00
3132;BME280;62090;52.330;9.104;2023-03-21T03:06:08;101005.91;;;9.94;100.00
3132;BME280;62090;52.330;9.104;2023-03-21T03:08:52;101002.38;;;9.89;100.00
3132;BME280;62090;52.330;9.104;2023-03-21T03:11:30;100984.59;;;9.91;100.00
3132;BME280;62090;52.330;9.104;2023-03-21T03:14:17;100972.56;;;9.85;100.00
3132;BME280;62090;52.330;9.104;2023-03-21T03:17:17;100963.63;;;9.71;100.00
3132;BME280;62090;52.330;9.104;2023-03-21T03:20:08;100996.38;;;9.87;100.00
3132;BME280;62090;52.330;9.104;2023-03-21T03:22:50;100983.38;;;9.78;100.00
3132;BME280;62090;52.330;9.104;2023-03-21T03:25:28;101002.69;;;9.98;100.00
3132;BME280;62090;52.330;9.104;2023-03-21T03:28:14;100997.66;;;10.01;100.00
3132;BME280;62090;52.330;9.104;2023-03-21T03:30:46;100998.78;;;10.09;100.00
3132;BME280;62090;52.330;9.104;2023-03-21T03:33:39;101003.75;;;10.06;100.00
3132;BME280;62090;52.330;9.104;2023-03-21T03:36:12;100994.38;;;10.05;100.00
3132;BME280;62090;52.330;9.104;2023-03-21T03:39:03;100986.63;;;10.01;100.00
3132;BME280;62090;52.330;9.104;2023-03-21T03:41:42;100989.59;;;10.14;100.00
3132;BME280;62090;52.330;9.104;2023-03-21T03:44:38;100986.13;;;10.12;100.00
3132;BME280;62090;52.330;9.104;2023-03-21T03:47:10;100981.31;;;10.20;100.00
3132;BME280;62090;52.330;9.104;2023-03-21T03:50:02;100980.38;;;10.18;100.00
3132;BME280;62090;52.330;9.104;2023-03-21T03:52:37;100980.47;;;10.21;100.00
3132;BME280;62090;52.330;9.104;2023-03-21T03:55:22;100985.56;;;10.21;100.00
3132;BME280;62090;52.330;9.104;2023-03-21T03:58:16;100982.44;;;10.30;100.00
3132;BME280;62090;52.330;9.104;2023-03-21T04:00:55;100922.56;;;9.87;100.00
3132;BME280;62090;52.330;9.104;2023-03-21T04:03:25;100970.09;;;10.15;100.00
3132;BME280;62090;52.330;9.104;2023-03-21T04:06:07;100936.34;;;9.94;100.00
3132;BME280;62090;52.330;9.104;2023-03-21T04:08:37;100958.34;;;10.19;100.00
3132;BME280;62090;52.330;9.104;2023-03-21T04:11:07;100958.47;;;10.23;100.00
3132;BME280;62090;52.330;9.104;2023-03-21T04:13:40;100971.19;;;10.23;100.00
3132;BME280;62090;52.330;9.104;2023-03-21T04:16:17;100910.59;;;9.85;100.00
3132;BME280;62090;52.330;9.104;2023-03-21T04:18:46;100959.22;;;10.21;100.00
3132;BME280;62090;52.330;9.104;2023-03-21T04:21:19;100891.56;;;9.72;100.00
3132;BME280;62090;52.330;9.104;2023-03-21T04:23:48;100961.41;;;10.08;100.00
3132;BME280;62090;52.330;9.104;2023-03-21T04:26:20;100959.78;;;10.12;100.00
3132;BME280;62090;52.330;9.104;2023-03-21T04:29:13;100959.41;;;9.98;100.00
3132;BME280;62090;52.330;9.104;2023-03-21T04:32:11;100962.28;;;10.10;100.00
3132;BME280;62090;52.330;9.104;2023-03-21T04:34:54;100909.78;;;9.86;100.00
3132;BME280;62090;52.330;9.104;2023-03-21T04:37:24;100889.84;;;9.71;100.00
3132;BME280;62090;52.330;9.104;2023-03-21T04:39:55;100933.84;;;9.95;100.00
3132;BME280;62090;52.330;9.104;2023-03-21T04:42:25;100966.78;;;10.18;100.00
3132;BME280;62090;52.330;9.104;2023-03-21T04:44:57;100962.63;;;10.21;100.00
3132;BME280;62090;52.330;9.104;2023-03-21T04:47:27;100967.72;;;10.20;100.00
3132;BME280;62090;52.330;9.104;2023-03-21T04:49:57;100950.47;;;10.12;100.00
3132;BME280;62090;52.330;9.104;2023-03-21T04:52:26;100946.88;;;10.06;100.00
3132;BME280;62090;52.330;9.104;2023-03-21T04:54:56;100940.56;;;9.93;100.00
3132;BME280;62090;52.330;9.104;2023-03-21T04:57:26;100906.16;;;9.78;100.00
3132;BME280;62090;52.330;9.104;2023-03-21T04:59:59;100952.03;;;10.07;100.00
3132;BME280;62090;52.330;9.104;2023-03-21T05:02:32;100942.84;;;10.12;100.00
3132;BME280;62090;52.330;9.104;2023-03-21T05:05:02;100877.06;;;9.69;100.00
3132;BME280;62090;52.330;9.104;2023-03-21T05:07:32;100885.94;;;9.82;100.00
3132;BME280;62090;52.330;9.104;2023-03-21T05:10:03;100900.56;;;9.89;100.00
3132;BME280;62090;52.330;9.104;2023-03-21T05:12:33;100941.38;;;10.19;100.00
3132;BME280;62090;52.330;9.104;2023-03-21T05:15:08;100891.28;;;9.91;100.00
3132;BME280;62090;52.330;9.104;2023-03-21T05:17:38;100937.16;;;10.20;100.00
3132;BME280;62090;52.330;9.104;2023-03-21T05:20:09;100921.66;;;10.13;100.00
3132;BME280;62090;52.330;9.104;2023-03-21T05:22:43;100939.13;;;10.30;100.00
3132;BME280;62090;52.330;9.104;2023-03-21T05:25:16;100944.44;;;10.37;100.00
3132;BME280;62090;52.330;9.104;2023-03-21T05:28:16;100947.66;;;10.32;100.00
3132;BME280;62090;52.330;9.104;2023-03-21T05:30:50;100897.44;;;9.98;100.00
3132;BME280;62090;52.330;9.104;2023-03-21T05:33:19;100910.41;;;10.07;100.00
3132;BME280;62090;52.330;9.104;2023-03-21T05:35:49;100937.91;;;10.17;100.00
3132;BME280;62090;52.330;9.104;2023-03-21T05:38:19;100840.56;;;9.69;100.00
3132;BME280;62090;52.330;9.104;2023-03-21T05:40:52;100890.75;;;10.01;100.00
3132;BME280;62090;52.330;9.104;2023-03-21T05:43:23;100927.41;;;10.35;100.00
3132;BME280;62090;52.330;9.104;2023-03-21T05:45:56;100947.78;;;10.35;100.00
3132;BME280;62090;52.330;9.104;2023-03-21T05:48:28;100932.31;;;10.29;100.00
3132;BME280;62090;52.330;9.104;2023-03-21T05:51:16;100938.16;;;10.25;100.00
3132;BME280;62090;52.330;9.104;2023-03-21T05:53:46;100886.06;;;9.87;100.00
3132;BME280;62090;52.330;9.104;2023-03-21T05:56:17;100950.06;;;10.26;100.00
3132;BME280;62090;52.330;9.104;2023-03-21T05:58:54;100893.56;;;9.82;100.00
3132;BME280;62090;52.330;9.104;2023-03-21T06:01:26;100889.78;;;9.98;100.00
3132;BME280;62090;52.330;9.104;2023-03-21T06:04:06;100951.06;;;10.31;100.00
3132;BME280;62090;52.330;9.104;2023-03-21T06:06:36;100938.41;;;10.34;100.00
3132;BME280;62090;52.330;9.104;2023-03-21T06:09:06;100892.66;;;10.08;100.00
3132;BME280;62090;52.330;9.104;2023-03-21T06:11:39;100948.59;;;10.34;100.00
3132;BME280;62090;52.330;9.104;2023-03-21T06:14:20;100932.31;;;10.29;100.00
3132;BME280;62090;52.330;9.104;2023-03-21T06:17:16;100920.38;;;10.28;100.00
3132;BME280;62090;52.330;9.104;2023-03-21T06:19:51;100927.41;;;10.35;100.00
3132;BME280;62090;52.330;9.104;2023-03-21T06:22:34;100886.78;;;10.11;100.00
3132;BME280;62090;52.330;9.104;2023-03-21T06:25:06;100942.25;;;10.49;100.00
3132;BME280;62090;52.330;9.104;2023-03-21T06:27:37;100953.06;;;10.42;100.00
3132;BME280;62090;52.330;9.104;2023-03-21T06:30:08;100955.47;;;10.38;100.00
3132;BME280;62090;52.330;9.104;2023-03-21T06:33:04;100891.03;;;10.12;100.00
3132;BME280;62090;52.330;9.104;2023-03-21T06:35:33;100928.94;;;10.30;100.00
3132;BME280;62090;52.330;9.104;2023-03-21T06:38:04;100948.66;;;10.37;100.00
3132;BME280;62090;52.330;9.104;2023-03-21T06:40:34;100941.69;;;10.30;100.00
3132;BME280;62090;52.330;9.104;2023-03-21T06:43:04;100952.88;;;10.35;100.00
3132;BME280;62090;52.330;9.104;2023-03-21T06:45:34;100936.59;;;10.31;100.00
3132;BME280;62090;52.330;9.104;2023-03-21T06:48:07;100875.34;;;9.97;100.00
3132;BME280;62090;52.330;9.104;2023-03-21T06:50:47;100943.56;;;10.37;100.00
3132;BME280;62090;52.330;9.104;2023-03-21T06:53:19;100963.25;;;10.42;100.00
3132;BME280;62090;52.330;9.104;2023-03-21T06:56:16;100931.50;;;10.31;100.00
3132;BME280;62090;52.330;9.104;2023-03-21T06:58:47;100902.91;;;10.11;100.00
3132;BME280;62090;52.330;9.104;2023-03-21T07:01:33;100955.97;;;10.54;100.00
3132;BME280;62090;52.330;9.104;2023-03-21T07:04:08;100924.06;;;10.37;100.00
3132;BME280;62090;52.330;9.104;2023-03-21T07:06:38;100959.31;;;10.53;100.00
3132;BME280;62090;52.330;9.104;2023-03-21T07:09:08;100955.19;;;10.57;100.00
3132;BME280;62090;52.330;9.104;2023-03-21T07:11:38;100943.53;;;10.65;100.00
3132;BME280;62090;52.330;9.104;2023-03-21T07:14:08;100942.06;;;10.75;100.00
3132;BME280;62090;52.330;9.104;2023-03-21T07:16:37;100938.13;;;10.86;100.00
3132;BME280;62090;52.330;9.104;2023-03-21T07:19:10;100906.59;;;10.82;100.00
3132;BME280;62090;52.330;9.104;2023-03-21T07:21:42;100909.91;;;10.78;100.00
3132;BME280;62090;52.330;9.104;2023-03-21T07:24:12;100892.44;;;10.61;100.00
3132;BME280;62090;52.330;9.104;2023-03-21T07:26:42;100906.34;;;11.05;100.00
3132;BME280;62090;52.330;9.104;2023-03-21T07:29:12;100908.44;;;11.22;100.00
3132;BME280;62090;52.330;9.104;2023-03-21T07:31:43;100889.91;;;10.93;100.00
3132;BME280;62090;52.330;9.104;2023-03-21T07:34:15;100852.81;;;10.72;100.00
3132;BME280;62090;52.330;9.104;2023-03-21T07:36:45;100893.59;;;11.05;100.00
3132;BME280;62090;52.330;9.104;2023-03-21T07:39:15;100941.09;;;11.35;100.00
3132;BME280;62090;52.330;9.104;2023-03-21T07:41:47;100882.25;;;10.93;100.00
3132;BME280;62090;52.330;9.104;2023-03-21T07:44:28;100937.78;;;11.39;100.00
3132;BME280;62090;52.330;9.104;2023-03-21T07:47:02;100921.50;;;11.34;100.00
3132;BME280;62090;52.330;9.104;2023-03-21T07:49:35;100923.09;;;11.29;100.00
3132;BME280;62090;52.330;9.104;2023-03-21T07:52:05;100871.28;;;10.97;100.00
3132;BME280;62090;52.330;9.104;2023-03-21T07:54:35;100924.78;;;11.29;100.00
3132;BME280;62090;52.330;9.104;2023-03-21T07:57:05;100940.28;;;11.38;100.00
3132;BME280;62090;52.330;9.104;2023-03-21T07:59:37;100934.44;;;11.42;100.00
3132;BME280;62090;52.330;9.104;2023-03-21T08:02:09;100941.50;;;11.52;100.00
3132;BME280;62090;52.330;9.104;2023-03-21T08:04:42;100936.22;;;11.44;100.00
3132;BME280;62090;52.330;9.104;2023-03-21T08:07:12;100873.91;;;11.00;100.00
3132;BME280;62090;52.330;9.104;2023-03-21T08:09:42;100942.25;;;11.48;100.00
3132;BME280;62090;52.330;9.104;2023-03-21T08:12:12;100931.81;;;11.39;100.00
3132;BME280;62090;52.330;9.104;2023-03-21T08:14:42;100945.84;;;11.56;100.00
3132;BME280;62090;52.330;9.104;2023-03-21T08:17:12;100944.28;;;11.61;100.00
3132;BME280;62090;52.330;9.104;2023-03-21T08:19:44;100920.31;;;11.56;100.00
3132;BME280;62090;52.330;9.104;2023-03-21T08:22:14;100949.63;;;11.72;100.00
3132;BME280;62090;52.330;9.104;2023-03-21T08:24:44;100901.50;;;11.51;100.00
3132;BME280;62090;52.330;9.104;2023-03-21T08:27:14;100938.53;;;11.71;100.00
3132;BME280;62090;52.330;9.104;2023-03-21T08:29:44;100931.88;;;11.76;100.00
3132;BME280;62090;52.330;9.104;2023-03-21T08:32:17;100915.44;;;11.65;100.00
3132;BME280;62090;52.330;9.104;2023-03-21T08:34:57;100950.56;;;11.75;100.00
3132;BME280;62090;52.330;9.104;2023-03-21T08:37:27;100930.53;;;11.56;100.00
3132;BME280;62090;52.330;9.104;2023-03-21T08:39:57;100941.06;;;11.70;100.00
3132;BME280;62090;52.330;9.104;2023-03-21T08:42:27;100952.50;;;11.84;100.00
3132;BME280;62090;52.330;9.104;2023-03-21T08:44:57;100948.16;;;11.81;100.00
3132;BME280;62090;52.330;9.104;2023-03-21T08:47:26;100941.34;;;11.80;100.00
3132;BME280;62090;52.330;9.104;2023-03-21T08:49:59;100861.44;;;11.47;100.00
3132;BME280;62090;52.330;9.104;2023-03-21T08:52:29;100945.91;;;11.95;100.00
3132;BME280;62090;52.330;9.104;2023-03-21T08:54:59;100891.63;;;11.66;100.00
3132;BME280;62090;52.330;9.104;2023-03-21T08:57:29;100904.59;;;11.74;100.00
3132;BME280;62090;52.330;9.104;2023-03-21T08:59:59;100957.81;;;11.93;100.00
3132;BME280;62090;52.330;9.104;2023-03-21T09:02:32;100945.22;;;12.02;100.00
3132;BME280;62090;52.330;9.104;2023-03-21T09:05:05;100889.34;;;11.77;100.00
3132;BME280;62090;52.330;9.104;2023-03-21T09:07:38;100942.75;;;12.07;100.00
3132;BME280;62090;52.330;9.104;2023-03-21T09:10:11;100932.34;;;11.98;100.00
3132;BME280;62090;52.330;9.104;2023-03-21T09:12:48;100940.06;;;12.01;100.00
3132;BME280;62090;52.330;9.104;2023-03-21T09:15:19;100944.31;;;11.99;100.00
3132;BME280;62090;52.330;9.104;2023-03-21T09:17:51;100887.19;;;11.58;100.00
3132;BME280;62090;52.330;9.104;2023-03-21T09:20:25;100906.94;;;11.66;100.00
3132;BME280;62090;52.330;9.104;2023-03-21T09:22:59;100876.84;;;11.53;100.00
3132;BME280;62090;52.330;9.104;2023-03-21T09:25:28;100908.03;;;11.76;100.00
3132;BME280;62090;52.330;9.104;2023-03-21T09:27:59;100936.59;;;11.97;100.00
3132;BME280;62090;52.330;9.104;2023-03-21T09:30:31;100932.19;;;11.90;100.00
3132;BME280;62090;52.330;9.104;2023-03-21T09:33:04;100948.31;;;11.88;100.00
3132;BME280;62090;52.330;9.104;2023-03-21T09:35:42;100950.91;;;11.89;100.00
3132;BME280;62090;52.330;9.104;2023-03-21T09:38:12;100943.81;;;11.77;100.00
3132;BME280;62090;52.330;9.104;2023-03-21T09:40:54;100933.00;;;11.88;100.00
3132;BME280;62090;52.330;9.104;2023-03-21T09:43:35;100863.31;;;11.56;100.00
3132;BME280;62090;52.330;9.104;2023-03-21T09:46:14;100948.78;;;12.09;100.00
3132;BME280;62090;52.330;9.104;2023-03-21T09:48:53;100928.66;;;11.85;100.00
3132;BME280;62090;52.330;9.104;2023-03-21T09:51:31;100946.72;;;11.93;100.00
3132;BME280;62090;52.330;9.104;2023-03-21T09:54:07;100940.56;;;11.84;100.00
3132;BME280;62090;52.330;9.104;2023-03-21T09:56:41;100942.59;;;11.63;100.00
3132;BME280;62090;52.330;9.104;2023-03-21T09:59:19;100940.66;;;11.88;100.00
3132;BME280;62090;52.330;9.104;2023-03-21T10:01:51;100938.97;;;11.88;100.00
3132;BME280;62090;52.330;9.104;2023-03-21T10:04:21;100931.06;;;11.77;100.00
3132;BME280;62090;52.330;9.104;2023-03-21T10:06:57;100934.59;;;11.82;100.00
3132;BME280;62090;52.330;9.104;2023-03-21T10:09:28;100884.31;;;11.44;100.00
3132;BME280;62090;52.330;9.104;2023-03-21T10:12:03;100944.16;;;11.93;100.00
3132;BME280;62090;52.330;9.104;2023-03-21T10:14:37;100934.72;;;12.29;100.00
3132;BME280;62090;52.330;9.104;2023-03-21T10:17:26;100940.06;;;11.99;100.00
3132;BME280;62090;52.330;9.104;2023-03-21T10:20:09;100932.84;;;11.81;100.00
3132;BME280;62090;52.330;9.104;2023-03-21T10:22:43;100929.53;;;11.85;100.00
3132;BME280;62090;52.330;9.104;2023-03-21T10:25:16;100880.16;;;11.49;100.00
3132;BME280;62090;52.330;9.104;2023-03-21T10:27:49;100927.69;;;11.78;100.00
3132;BME280;62090;52.330;9.104;2023-03-21T10:30:27;100891.16;;;11.45;100.00
3132;BME280;62090;52.330;9.104;2023-03-21T10:33:01;100851.25;;;11.13;100.00
3132;BME280;62090;52.330;9.104;2023-03-21T10:35:33;100887.78;;;11.46;100.00
3132;BME280;62090;52.330;9.104;2023-03-21T10:38:13;100812.59;;;10.96;100.00
3132;BME280;62090;52.330;9.104;2023-03-21T10:40:44;100923.03;;;11.64;100.00
3132;BME280;62090;52.330;9.104;2023-03-21T10:43:19;100924.72;;;11.62;100.00
3132;BME280;62090;52.330;9.104;2023-03-21T10:46:06;100914.75;;;11.72;100.00
3132;BME280;62090;52.330;9.104;2023-03-21T10:48:38;100912.38;;;11.78;100.00
3132;BME280;62090;52.330;9.104;2023-03-21T10:51:16;100900.13;;;11.65;100.00
3132;BME280;62090;52.330;9.104;2023-03-21T10:53:54;100882.47;;;11.74;100.00
3132;BME280;62090;52.330;9.104;2023-03-21T10:56:25;100921.53;;;12.09;100.00
3132;BME280;62090;52.330;9.104;2023-03-21T10:58:58;100834.56;;;11.64;100.00
3132;BME280;62090;52.330;9.104;2023-03-21T11:01:34;100907.88;;;12.07;100.00
3132;BME280;62090;52.330;9.104;2023-03-21T11:04:08;100820.06;;;11.63;100.00
3132;BME280;62090;52.330;9.104;2023-03-21T11:06:40;100875.22;;;11.93;100.00
3132;BME280;62090;52.330;9.104;2023-03-21T11:09:16;100893.44;;;12.09;100.00
3132;BME280;62090;52.330;9.104;2023-03-21T11:11:52;100844.88;;;11.69;100.00
3132;BME280;62090;52.330;9.104;2023-03-21T11:14:31;100839.47;;;11.55;100.00
3132;BME280;62090;52.330;9.104;2023-03-21T11:17:18;100895.66;;;11.93;100.00
3132;BME280;62090;52.330;9.104;2023-03-21T11:19:50;100904.13;;;11.92;100.00
3132;BME280;62090;52.330;9.104;2023-03-21T11:22:22;100898.56;;;12.11;100.00
3132;BME280;62090;52.330;9.104;2023-03-21T11:24:58;100829.47;;;11.63;100.00
3132;BME280;62090;52.330;9.104;2023-03-21T11:27:29;100870.09;;;11.93;100.00
3132;BME280;62090;52.330;9.104;2023-03-21T11:30:02;100819.34;;;11.67;100.00
3132;BME280;62090;52.330;9.104;2023-03-21T11:32:36;100889.13;;;12.07;100.00
3132;BME280;62090;52.330;9.104;2023-03-21T11:35:14;100840.97;;;11.84;100.00
3132;BME280;62090;52.330;9.104;2023-03-21T11:37:49;100869.66;;;12.12;100.00
3132;BME280;62090;52.330;9.104;2023-03-21T11:40:24;100830.06;;;11.92;100.00
3132;BME280;62090;52.330;9.104;2023-03-21T11:42:55;100892.25;;;12.34;100.00
3132;BME280;62090;52.330;9.104;2023-03-21T11:45:28;100886.09;;;12.24;100.00
3132;BME280;62090;52.330;9.104;2023-03-21T11:48:02;100889.56;;;12.28;100.00
3132;BME280;62090;52.330;9.104;2023-03-21T11:50:36;100885.31;;;12.28;100.00
3132;BME280;62090;52.330;9.104;2023-03-21T11:53:19;100851.09;;;12.20;100.00
3132;BME280;62090;52.330;9.104;2023-03-21T11:56:07;100882.97;;;12.39;100.00
3132;BME280;62090;52.330;9.104;2023-03-21T11:58:45;100809.66;;;11.92;100.00
3132;BME280;62090;52.330;9.104;2023-03-21T12:01:24;100818.44;;;12.04;100.00
3132;BME280;62090;52.330;9.104;2023-03-21T12:04:03;100860.38;;;12.17;100.00
3132;BME280;62090;52.330;9.104;2023-03-21T12:06:38;100854.66;;;12.28;100.00
3132;BME280;62090;52.330;9.104;2023-03-21T12:09:22;100796.13;;;11.97;100.00
3132;BME280;62090;52.330;9.104;2023-03-21T12:12:05;100856.53;;;12.39;100.00
3132;BME280;62090;52.330;9.104;2023-03-21T12:14:46;100799.75;;;12.08;100.00
3132;BME280;62090;52.330;9.104;2023-03-21T12:17:29;100854.94;;;12.44;100.00
3132;BME280;62090;52.330;9.104;2023-03-21T12:20:13;100843.84;;;12.43;100.00
3132;BME280;62090;52.330;9.104;2023-03-21T12:22:55;100841.34;;;12.45;100.00
3132;BME280;62090;52.330;9.104;2023-03-21T12:25:31;100788.47;;;11.97;100.00
3132;BME280;62090;52.330;9.104;2023-03-21T12:28:20;100845.44;;;12.37;100.00
3132;BME280;62090;52.330;9.104;2023-03-21T12:31:06;100843.13;;;12.50;100.00
3132;BME280;62090;52.330;9.104;2023-03-21T12:33:48;100774.41;;;12.19;100.00
3132;BME280;62090;52.330;9.104;2023-03-21T12:36:34;100833.69;;;12.46;100.00
3132;BME280;62090;52.330;9.104;2023-03-21T12:39:14;100821.59;;;12.36;100.00
3132;BME280;62090;52.330;9.104;2023-03-21T12:41:56;100821.78;;;12.48;100.00
3132;BME280;62090;52.330;9.104;2023-03-21T12:44:36;100783.16;;;12.30;100.00
3132;BME280;62090;52.330;9.104;2023-03-21T12:47:09;100765.25;;;12.30;100.00
3132;BME280;62090;52.330;9.104;2023-03-21T12:49:46;100749.59;;;12.10;100.00
3132;BME280;62090;52.330;9.104;2023-03-21T12:52:23;100745.38;;;12.14;100.00
3132;BME280;62090;52.330;9.104;2023-03-21T12:54:58;100817.66;;;12.55;100.00
3132;BME280;62090;52.330;9.104;2023-03-21T12:57:32;100811.56;;;12.48;100.00
3132;BME280;62090;52.330;9.104;2023-03-21T13:00:19;100747.84;;;12.11;100.00
3132;BME280;62090;52.330;9.104;2023-03-21T13:02:52;100777.06;;;12.23;100.00
3132;BME280;62090;52.330;9.104;2023-03-21T13:05:26;100801.81;;;12.26;100.00
3132;BME280;62090;52.330;9.104;2023-03-21T13:08:00;100801.91;;;12.32;100.00
3132;BME280;62090;52.330;9.104;2023-03-21T13:10:33;100778.81;;;12.26;100.00
3132;BME280;62090;52.330;9.104;2023-03-21T13:13:10;100739.06;;;11.94;100.00
3132;BME280;62090;52.330;9.104;2023-03-21T13:16:01;100792.50;;;12.30;100.00
3132;BME280;62090;52.330;9.104;2023-03-21T13:18:48;100783.94;;;12.27;100.00
3132;BME280;62090;52.330;9.104;2023-03-21T13:21:31;100771.81;;;12.17;100.00
3132;BME280;62090;52.330;9.104;2023-03-21T13:24:04;100789.00;;;12.24;100.00
3132;BME280;62090;52.330;9.104;2023-03-21T13:26:38;100786.53;;;12.29;100.00
3132;BME280;62090;52.330;9.104;2023-03-21T13:29:13;100735.38;;;11.81;100.00
3132;BME280;62090;52.330;9.104;2023-03-21T13:31:47;100786.13;;;12.08;100.00
3132;BME280;62090;52.330;9.104;2023-03-21T13:34:21;100758.00;;;12.05;100.00
3132;BME280;62090;52.330;9.104;2023-03-21T13:36:51;100771.13;;;12.24;100.00
3132;BME280;62090;52.330;9.104;2023-03-21T13:39:24;100749.22;;;11.92;100.00